LFRD/DNR METAR and TAF weather

Enter ICAO airport designator
Station Type Date Time Source
LFRD METAR 2019/06/19 01:00 UTC NOAA

LFRD 190100Z AUTO 08003KT CAVOK 15/14 Q1008 TEMPO VRB15G30KT 4000 TSRA BKN007


Station Type Date Time Source
LFRD Decoded METAR 2019/06/19 01:00 UTC NOAA

Dinard, France (LFRD) 48-35N 002-04W 60M
Jun 18, 2019 - 09:00 PM EDT / 2019.06.19 0100 UTC
Wind: from the E (080 degrees) at 3 MPH (3 KT):0
Visibility: greater than 7 mile(s):0
Temperature: 59 F (15 C)
Dew Point: 57 F (14 C)
Relative Humidity: 93%
Pressure (altimeter): 29.77 in. Hg (1008 hPa)
ob: LFRD 190100Z AUTO 08003KT CAVOK 15/14 Q1008 TEMPO VRB15G30KT 4000 TSRA BKN007
cycle: 1

Station Type Date Time Source
LFRD TAF 2019/06/19 00:31 UTC NOAA

TAF
AMD LFRD 190024Z 1900/1924 VRB05KT CAVOK
TEMPO 1900/1909 5000 SHRA BKN050TCU
TEMPO 1900/1906 VRB15G30KT 4000 TSRA BKN030CB PROB30
TEMPO 1900/1906 TSRAGR
TEMPO 1902/1910 BKN007
TEMPO 1912/1918 4000 SHRA SCT015CB SCT017TCU
BECMG 1912/1915 35010KT
TEMPO 1915/1918 BKN010
BECMG 1921/1924 29010KT

Example: see airport list